sensor_id;sensor_type;location;lat;lon;timestamp;pressure;altitude;pressure_sealevel;temperature;humidity
70027;BME280;57506;50.092;15.804;2023-03-04T00:01:39;99375.41;;;-1.56;100.00
70027;BME280;57506;50.092;15.804;2023-03-04T00:04:05;99367.88;;;-1.50;100.00
70027;BME280;57506;50.092;15.804;2023-03-04T00:06:31;99373.50;;;-1.54;100.00
70027;BME280;57506;50.092;15.804;2023-03-04T00:08:57;99381.53;;;-1.56;100.00
70027;BME280;57506;50.092;15.804;2023-03-04T00:11:22;99378.78;;;-1.54;100.00
70027;BME280;57506;50.092;15.804;2023-03-04T00:13:48;99371.47;;;-1.51;100.00
70027;BME280;57506;50.092;15.804;2023-03-04T00:16:13;99379.19;;;-1.48;100.00
70027;BME280;57506;50.092;15.804;2023-03-04T00:18:39;99374.97;;;-1.50;100.00
70027;BME280;57506;50.092;15.804;2023-03-04T00:21:05;99380.41;;;-1.41;100.00
70027;BME280;57506;50.092;15.804;2023-03-04T00:23:30;99383.16;;;-1.42;100.00
70027;BME280;57506;50.092;15.804;2023-03-04T00:25:56;99377.13;;;-1.44;100.00
70027;BME280;57506;50.092;15.804;2023-03-04T00:28:21;99381.47;;;-1.43;100.00
70027;BME280;57506;50.092;15.804;2023-03-04T00:30:47;99384.00;;;-1.42;100.00
70027;BME280;57506;50.092;15.804;2023-03-04T00:33:13;99386.16;;;-1.47;100.00
70027;BME280;57506;50.092;15.804;2023-03-04T00:35:39;99381.72;;;-1.46;100.00
70027;BME280;57506;50.092;15.804;2023-03-04T00:38:04;99383.50;;;-1.47;100.00
70027;BME280;57506;50.092;15.804;2023-03-04T00:40:30;99375.31;;;-1.44;100.00
70027;BME280;57506;50.092;15.804;2023-03-04T00:42:55;99384.84;;;-1.41;100.00
70027;BME280;57506;50.092;15.804;2023-03-04T00:45:21;99382.19;;;-1.41;100.00
70027;BME280;57506;50.092;15.804;2023-03-04T00:47:46;99387.69;;;-1.44;100.00
70027;BME280;57506;50.092;15.804;2023-03-04T00:50:12;99383.38;;;-1.45;100.00
70027;BME280;57506;50.092;15.804;2023-03-04T00:52:37;99378.94;;;-1.45;100.00
70027;BME280;57506;50.092;15.804;2023-03-04T00:55:03;99366.56;;;-1.44;100.00
70027;BME280;57506;50.092;15.804;2023-03-04T00:57:29;99363.81;;;-1.43;100.00
70027;BME280;57506;50.092;15.804;2023-03-04T00:59:54;99369.72;;;-1.39;100.00
70027;BME280;57506;50.092;15.804;2023-03-04T01:02:20;99359.97;;;-1.38;100.00
70027;BME280;57506;50.092;15.804;2023-03-04T01:04:45;99360.50;;;-1.33;100.00
70027;BME280;57506;50.092;15.804;2023-03-04T01:07:11;99359.13;;;-1.39;100.00
70027;BME280;57506;50.092;15.804;2023-03-04T01:09:36;99349.28;;;-1.37;100.00
70027;BME280;57506;50.092;15.804;2023-03-04T01:12:02;99362.75;;;-1.29;100.00
70027;BME280;57506;50.092;15.804;2023-03-04T01:14:27;99348.97;;;-1.32;100.00
70027;BME280;57506;50.092;15.804;2023-03-04T01:16:53;99344.63;;;-1.33;100.00
70027;BME280;57506;50.092;15.804;2023-03-04T01:19:18;99342.94;;;-1.34;100.00
70027;BME280;57506;50.092;15.804;2023-03-04T01:21:44;99337.44;;;-1.31;100.00
70027;BME280;57506;50.092;15.804;2023-03-04T01:24:10;99347.88;;;-1.30;100.00
70027;BME280;57506;50.092;15.804;2023-03-04T01:26:35;99332.03;;;-1.30;100.00
70027;BME280;57506;50.092;15.804;2023-03-04T01:29:02;99333.56;;;-1.27;100.00
70027;BME280;57506;50.092;15.804;2023-03-04T01:31:28;99331.88;;;-1.28;100.00
70027;BME280;57506;50.092;15.804;2023-03-04T01:33:53;99326.47;;;-1.27;100.00
70027;BME280;57506;50.092;15.804;2023-03-04T01:36:19;99316.16;;;-1.30;100.00
70027;BME280;57506;50.092;15.804;2023-03-04T01:38:44;99318.19;;;-1.33;100.00
70027;BME280;57506;50.092;15.804;2023-03-04T01:41:11;99316.13;;;-1.41;100.00
70027;BME280;57506;50.092;15.804;2023-03-04T01:43:38;99311.66;;;-1.41;100.00
70027;BME280;57506;50.092;15.804;2023-03-04T01:46:04;99324.31;;;-1.33;100.00
70027;BME280;57506;50.092;15.804;2023-03-04T01:48:32;99305.44;;;-1.39;100.00
70027;BME280;57506;50.092;15.804;2023-03-04T01:51:00;99300.97;;;-1.39;100.00
70027;BME280;57506;50.092;15.804;2023-03-04T01:53:30;99300.25;;;-1.41;100.00
70027;BME280;57506;50.092;15.804;2023-03-04T01:56:00;99303.41;;;-1.36;100.00
70027;BME280;57506;50.092;15.804;2023-03-04T01:58:29;99301.72;;;-1.37;100.00
70027;BME280;57506;50.092;15.804;2023-03-04T02:00:56;99296.19;;;-1.34;100.00
70027;BME280;57506;50.092;15.804;2023-03-04T02:03:22;99292.84;;;-1.25;100.00
70027;BME280;57506;50.092;15.804;2023-03-04T02:05:50;99291.28;;;-1.27;100.00
70027;BME280;57506;50.092;15.804;2023-03-04T02:08:18;99294.41;;;-1.22;100.00
70027;BME280;57506;50.092;15.804;2023-03-04T02:10:44;99284.06;;;-1.25;100.00
70027;BME280;57506;50.092;15.804;2023-03-04T02:13:11;99283.44;;;-1.29;100.00
70027;BME280;57506;50.092;15.804;2023-03-04T02:15:37;99277.22;;;-1.28;100.00
70027;BME280;57506;50.092;15.804;2023-03-04T02:18:21;99277.72;;;-1.23;100.00
70027;BME280;57506;50.092;15.804;2023-03-04T02:26:39;99276.25;;;-1.27;100.00
70027;BME280;57506;50.092;15.804;2023-03-04T02:29:09;99286.59;;;-1.24;100.00
70027;BME280;57506;50.092;15.804;2023-03-04T02:31:39;99275.56;;;-1.18;100.00
70027;BME280;57506;50.092;15.804;2023-03-04T02:34:10;99274.00;;;-1.20;100.00
70027;BME280;57506;50.092;15.804;2023-03-04T02:36:36;99277.25;;;-1.17;100.00
70027;BME280;57506;50.092;15.804;2023-03-04T02:39:27;99265.22;;;-1.21;100.00
70027;BME280;57506;50.092;15.804;2023-03-04T02:41:52;99255.25;;;-1.17;100.00
70027;BME280;57506;50.092;15.804;2023-03-04T02:44:21;99259.31;;;-1.13;100.00
70027;BME280;57506;50.092;15.804;2023-03-04T02:46:48;99249.75;;;-1.14;100.00
70027;BME280;57506;50.092;15.804;2023-03-04T02:49:14;99248.91;;;-1.15;100.00
70027;BME280;57506;50.092;15.804;2023-03-04T02:51:40;99254.88;;;-1.13;100.00
70027;BME280;57506;50.092;15.804;2023-03-04T02:54:20;99251.28;;;-1.12;100.00
70027;BME280;57506;50.092;15.804;2023-03-04T02:56:48;99245.88;;;-1.10;100.00
70027;BME280;57506;50.092;15.804;2023-03-04T02:59:14;99226.91;;;-1.15;100.00
70027;BME280;57506;50.092;15.804;2023-03-04T03:01:40;99235.19;;;-1.09;100.00
70027;BME280;57506;50.092;15.804;2023-03-04T03:04:05;99233.84;;;-0.92;100.00
70027;BME280;57506;50.092;15.804;2023-03-04T03:06:31;99232.06;;;-1.02;100.00
70027;BME280;57506;50.092;15.804;2023-03-04T03:08:56;99229.31;;;-1.01;100.00
70027;BME280;57506;50.092;15.804;2023-03-04T03:11:21;99221.00;;;-1.08;100.00
70027;BME280;57506;50.092;15.804;2023-03-04T03:13:47;99208.13;;;-1.12;100.00
70027;BME280;57506;50.092;15.804;2023-03-04T03:16:12;99218.72;;;-1.01;100.00
70027;BME280;57506;50.092;15.804;2023-03-04T03:18:38;99213.56;;;-1.02;100.00
70027;BME280;57506;50.092;15.804;2023-03-04T03:21:05;99226.53;;;-0.99;100.00
70027;BME280;57506;50.092;15.804;2023-03-04T03:23:30;99220.63;;;-1.03;100.00
70027;BME280;57506;50.092;15.804;2023-03-04T03:25:55;99237.25;;;-1.01;100.00
70027;BME280;57506;50.092;15.804;2023-03-04T03:28:21;99218.84;;;-1.02;100.00
70027;BME280;57506;50.092;15.804;2023-03-04T03:30:46;99236.41;;;-1.01;100.00
70027;BME280;57506;50.092;15.804;2023-03-04T03:33:12;99226.16;;;-1.06;100.00
70027;BME280;57506;50.092;15.804;2023-03-04T03:35:38;99230.16;;;-1.00;100.00
70027;BME280;57506;50.092;15.804;2023-03-04T03:38:03;99240.72;;;-1.00;100.00
70027;BME280;57506;50.092;15.804;2023-03-04T03:40:29;99230.16;;;-1.00;100.00
70027;BME280;57506;50.092;15.804;2023-03-04T03:42:54;99232.56;;;-0.97;100.00
70027;BME280;57506;50.092;15.804;2023-03-04T03:45:19;99220.97;;;-0.96;100.00
70027;BME280;57506;50.092;15.804;2023-03-04T03:47:45;99222.56;;;-0.94;100.00
70027;BME280;57506;50.092;15.804;2023-03-04T03:50:11;99237.56;;;-0.94;100.00
70027;BME280;57506;50.092;15.804;2023-03-04T03:52:36;99227.38;;;-0.99;100.00
70027;BME280;57506;50.092;15.804;2023-03-04T03:55:02;99236.72;;;-0.95;100.00
70027;BME280;57506;50.092;15.804;2023-03-04T03:57:28;99228.69;;;-0.93;100.00
70027;BME280;57506;50.092;15.804;2023-03-04T03:59:54;99225.81;;;-0.90;100.00
70027;BME280;57506;50.092;15.804;2023-03-04T04:02:20;99225.09;;;-0.92;100.00
70027;BME280;57506;50.092;15.804;2023-03-04T04:04:47;99216.41;;;-0.94;100.00
70027;BME280;57506;50.092;15.804;2023-03-04T04:07:12;99216.41;;;-0.94;100.00
70027;BME280;57506;50.092;15.804;2023-03-04T04:09:38;99230.13;;;-0.89;100.00
70027;BME280;57506;50.092;15.804;2023-03-04T04:12:05;99233.00;;;-0.92;100.00
70027;BME280;57506;50.092;15.804;2023-03-04T04:14:31;99244.19;;;-0.89;100.00
70027;BME280;57506;50.092;15.804;2023-03-04T04:16:56;99238.06;;;-0.89;100.00
70027;BME280;57506;50.092;15.804;2023-03-04T04:19:22;99222.56;;;-0.94;100.00
70027;BME280;57506;50.092;15.804;2023-03-04T04:21:47;99236.88;;;-0.85;100.00
70027;BME280;57506;50.092;15.804;2023-03-04T04:24:13;99241.44;;;-0.87;100.00
70027;BME280;57506;50.092;15.804;2023-03-04T04:26:39;99243.13;;;-0.86;100.00
70027;BME280;57506;50.092;15.804;2023-03-04T04:29:05;99241.94;;;-0.82;100.00
70027;BME280;57506;50.092;15.804;2023-03-04T04:31:31;99236.50;;;-0.92;100.00
70027;BME280;57506;50.092;15.804;2023-03-04T04:33:56;99229.28;;;-0.90;100.00
70027;BME280;57506;50.092;15.804;2023-03-04T04:36:22;99228.34;;;-0.89;100.00
70027;BME280;57506;50.092;15.804;2023-03-04T04:38:47;99236.28;;;-0.89;100.00
70027;BME280;57506;50.092;15.804;2023-03-04T04:41:22;99232.53;;;-0.86;100.00
70027;BME280;57506;50.092;15.804;2023-03-04T04:43:48;99217.88;;;-0.90;100.00
70027;BME280;57506;50.092;15.804;2023-03-04T04:46:14;99213.31;;;-0.88;100.00
70027;BME280;57506;50.092;15.804;2023-03-04T04:48:40;99226.28;;;-0.85;100.00
70027;BME280;57506;50.092;15.804;2023-03-04T04:51:06;99218.59;;;-0.88;100.00
70027;BME280;57506;50.092;15.804;2023-03-04T04:53:32;99215.22;;;-0.90;100.00
70027;BME280;57506;50.092;15.804;2023-03-04T04:55:58;99217.88;;;-0.90;100.00
70027;BME280;57506;50.092;15.804;2023-03-04T04:58:24;99224.59;;;-0.86;100.00
70027;BME280;57506;50.092;15.804;2023-03-04T05:00:49;99211.38;;;-0.86;100.00
70027;BME280;57506;50.092;15.804;2023-03-04T05:03:15;99218.47;;;-0.87;100.00
70027;BME280;57506;50.092;15.804;2023-03-04T05:05:41;99213.06;;;-0.85;100.00
70027;BME280;57506;50.092;15.804;2023-03-04T05:08:06;99208.00;;;-0.88;100.00
70027;BME280;57506;50.092;15.804;2023-03-04T05:10:32;99204.28;;;-0.86;100.00
70027;BME280;57506;50.092;15.804;2023-03-04T05:12:58;99203.09;;;-0.82;100.00
70027;BME280;57506;50.092;15.804;2023-03-04T05:15:23;99209.69;;;-0.87;100.00
70027;BME280;57506;50.092;15.804;2023-03-04T05:17:49;99211.50;;;-0.88;100.00
70027;BME280;57506;50.092;15.804;2023-03-04T05:20:15;99209.34;;;-0.83;100.00
70027;BME280;57506;50.092;15.804;2023-03-04T05:22:40;99223.41;;;-0.82;100.00
70027;BME280;57506;50.092;15.804;2023-03-04T05:25:06;99207.28;;;-0.90;100.00
70027;BME280;57506;50.092;15.804;2023-03-04T05:27:32;99211.50;;;-0.88;100.00
70027;BME280;57506;50.092;15.804;2023-03-04T05:29:57;99208.00;;;-0.88;100.00
70027;BME280;57506;50.092;15.804;2023-03-04T05:32:26;99221.97;;;-0.86;100.00
70027;BME280;57506;50.092;15.804;2023-03-04T05:34:52;99220.97;;;-0.74;100.00
70027;BME280;57506;50.092;15.804;2023-03-04T05:37:18;99206.69;;;-0.83;100.00
70027;BME280;57506;50.092;15.804;2023-03-04T05:39:43;99215.00;;;-0.87;100.00
70027;BME280;57506;50.092;15.804;2023-03-04T05:42:09;99222.91;;;-0.87;100.00
70027;BME280;57506;50.092;15.804;2023-03-04T05:44:34;99220.75;;;-0.82;100.00
70027;BME280;57506;50.092;15.804;2023-03-04T05:47:00;99223.66;;;-0.85;100.00
70027;BME280;57506;50.092;15.804;2023-03-04T05:49:25;99228.69;;;-0.82;100.00
70027;BME280;57506;50.092;15.804;2023-03-04T05:51:51;99220.16;;;-0.86;100.00
70027;BME280;57506;50.092;15.804;2023-03-04T05:54:16;99219.44;;;-0.88;100.00
70027;BME280;57506;50.092;15.804;2023-03-04T05:56:42;99228.19;;;-0.76;100.00
70027;BME280;57506;50.092;15.804;2023-03-04T05:59:08;99219.31;;;-0.75;100.00
70027;BME280;57506;50.092;15.804;2023-03-04T06:01:33;99221.47;;;-0.69;100.00
70027;BME280;57506;50.092;15.804;2023-03-04T06:03:58;99226.03;;;-0.71;100.00
70027;BME280;57506;50.092;15.804;2023-03-04T06:06:24;99246.72;;;-0.65;100.00
70027;BME280;57506;50.092;15.804;2023-03-04T06:08:50;99238.53;;;-0.73;100.00
70027;BME280;57506;50.092;15.804;2023-03-04T06:11:15;99235.41;;;-0.78;100.00
70027;BME280;57506;50.092;15.804;2023-03-04T06:13:41;99237.59;;;-0.83;100.00
70027;BME280;57506;50.092;15.804;2023-03-04T06:16:06;99244.78;;;-0.74;100.00
70027;BME280;57506;50.092;15.804;2023-03-04T06:18:32;99235.41;;;-0.78;100.00
70027;BME280;57506;50.092;15.804;2023-03-04T06:21:01;99262.59;;;-0.65;100.00
70027;BME280;57506;50.092;15.804;2023-03-04T06:23:28;99253.56;;;-0.62;100.00
70027;BME280;57506;50.092;15.804;2023-03-04T06:25:55;99264.25;;;-0.64;100.00
70027;BME280;57506;50.092;15.804;2023-03-04T06:28:22;99261.38;;;-0.61;100.00
70027;BME280;57506;50.092;15.804;2023-03-04T06:30:50;99262.22;;;-0.49;100.00
70027;BME280;57506;50.092;15.804;2023-03-04T06:33:15;99261.88;;;-0.56;100.00
70027;BME280;57506;50.092;15.804;2023-03-04T06:35:41;99264.16;;;-0.62;100.00
70027;BME280;57506;50.092;15.804;2023-03-04T06:38:06;99273.91;;;-0.52;100.00
70027;BME280;57506;50.092;15.804;2023-03-04T06:40:32;99276.66;;;-0.53;100.00
70027;BME280;57506;50.092;15.804;2023-03-04T06:42:57;99266.69;;;-0.50;100.00
70027;BME280;57506;50.092;15.804;2023-03-04T06:45:23;99277.63;;;-0.54;100.00
70027;BME280;57506;50.092;15.804;2023-03-04T06:47:49;99279.44;;;-0.55;100.00
70027;BME280;57506;50.092;15.804;2023-03-04T06:50:14;99272.94;;;-0.51;100.00
70027;BME280;57506;50.092;15.804;2023-03-04T06:52:40;99288.19;;;-0.43;100.00
70027;BME280;57506;50.092;15.804;2023-03-04T06:55:06;99274.13;;;-0.44;100.00
70027;BME280;57506;50.092;15.804;2023-03-04T06:57:32;99274.84;;;-0.42;100.00
70027;BME280;57506;50.092;15.804;2023-03-04T06:59:58;99280.38;;;-0.45;100.00
70027;BME280;57506;50.092;15.804;2023-03-04T07:02:23;99279.91;;;-0.39;100.00
70027;BME280;57506;50.092;15.804;2023-03-04T07:04:49;99270.75;;;-0.34;100.00
70027;BME280;57506;50.092;15.804;2023-03-04T07:07:15;99284.56;;;-0.20;100.00
70027;BME280;57506;50.092;15.804;2023-03-04T07:09:41;99274.69;;;-0.29;100.00
70027;BME280;57506;50.092;15.804;2023-03-04T07:12:06;99279.03;;;-0.28;100.00
70027;BME280;57506;50.092;15.804;2023-03-04T07:14:32;99266.31;;;-0.34;100.00
70027;BME280;57506;50.092;15.804;2023-03-04T07:16:57;99265.91;;;-0.18;100.00
70027;BME280;57506;50.092;15.804;2023-03-04T07:19:23;99254.59;;;-0.31;100.00
70027;BME280;57506;50.092;15.804;2023-03-04T07:21:49;99272.84;;;-0.06;100.00
70027;BME280;57506;50.092;15.804;2023-03-04T07:24:14;99274.16;;;-0.01;100.00
70027;BME280;57506;50.092;15.804;2023-03-04T07:26:40;99274.72;;;0.03;100.00
70027;BME280;57506;50.092;15.804;2023-03-04T07:29:05;99276.16;;;0.07;100.00
70027;BME280;57506;50.092;15.804;2023-03-04T07:31:33;99272.44;;;0.10;100.00
70027;BME280;57506;50.092;15.804;2023-03-04T07:34:04;99265.69;;;0.06;100.00
70027;BME280;57506;50.092;15.804;2023-03-04T07:36:32;99264.72;;;0.07;100.00
70027;BME280;57506;50.092;15.804;2023-03-04T07:38:58;99264.13;;;0.14;100.00
70027;BME280;57506;50.092;15.804;2023-03-04T07:41:25;99269.53;;;0.45;100.00
70027;BME280;57506;50.092;15.804;2023-03-04T07:43:51;99269.13;;;0.28;100.00
70027;BME280;57506;50.092;15.804;2023-03-04T07:46:17;99265.16;;;0.23;100.00
70027;BME280;57506;50.092;15.804;2023-03-04T07:48:43;99266.00;;;0.23;100.00
70027;BME280;57506;50.092;15.804;2023-03-04T07:51:15;99273.81;;;0.25;100.00
70027;BME280;57506;50.092;15.804;2023-03-04T07:53:42;99275.91;;;0.42;100.00
70027;BME280;57506;50.092;15.804;2023-03-04T07:56:12;99273.84;;;0.46;100.00
70027;BME280;57506;50.092;15.804;2023-03-04T07:58:38;99259.94;;;0.32;100.00
70027;BME280;57506;50.092;15.804;2023-03-04T08:01:18;99274.94;;;0.43;100.00
70027;BME280;57506;50.092;15.804;2023-03-04T08:03:44;99267.91;;;0.32;100.00
70027;BME280;57506;50.092;15.804;2023-03-04T08:06:13;99274.56;;;0.48;100.00
70027;BME280;57506;50.092;15.804;2023-03-04T08:08:39;99281.28;;;0.52;100.00
70027;BME280;57506;50.092;15.804;2023-03-04T08:11:17;99277.59;;;0.43;100.00
70027;BME280;57506;50.092;15.804;2023-03-04T08:13:43;99273.50;;;0.39;100.00
70027;BME280;57506;50.092;15.804;2023-03-04T08:16:13;99277.47;;;0.45;100.00
70027;BME280;57506;50.092;15.804;2023-03-04T08:18:44;99276.38;;;0.47;100.00
70027;BME280;57506;50.092;15.804;2023-03-04T08:21:11;99277.84;;;0.40;100.00
70027;BME280;57506;50.092;15.804;2023-03-04T08:23:37;99280.72;;;0.48;100.00
70027;BME280;57506;50.092;15.804;2023-03-04T08:26:12;99283.22;;;0.50;100.00
70027;BME280;57506;50.092;15.804;2023-03-04T08:28:39;99274.69;;;0.46;100.00
70027;BME280;57506;50.092;15.804;2023-03-04T08:31:06;99289.50;;;0.49;100.00
70027;BME280;57506;50.092;15.804;2023-03-04T08:33:32;99283.91;;;0.63;100.00
70027;BME280;57506;50.092;15.804;2023-03-04T08:35:58;99298.13;;;0.62;100.00
70027;BME280;57506;50.092;15.804;2023-03-04T08:38:24;99291.97;;;0.61;100.00
70027;BME280;57506;50.092;15.804;2023-03-04T08:40:54;99279.56;;;0.62;100.00
70027;BME280;57506;50.092;15.804;2023-03-04T08:43:20;99294.81;;;0.69;100.00
70027;BME280;57506;50.092;15.804;2023-03-04T08:45:46;99287.75;;;0.59;100.00
70027;BME280;57506;50.092;15.804;2023-03-04T08:48:11;99290.16;;;0.62;100.00
70027;BME280;57506;50.092;15.804;2023-03-04T08:50:37;99311.31;;;0.73;100.00
70027;BME280;57506;50.092;15.804;2023-03-04T08:53:02;99306.50;;;0.67;100.00
70027;BME280;57506;50.092;15.804;2023-03-04T08:55:28;99302.44;;;0.63;100.00
70027;BME280;57506;50.092;15.804;2023-03-04T08:57:54;99307.47;;;0.66;100.00
70027;BME280;57506;50.092;15.804;2023-03-04T09:00:19;99296.31;;;0.62;100.00
70027;BME280;57506;50.092;15.804;2023-03-04T09:02:46;99303.47;;;0.72;100.00
70027;BME280;57506;50.092;15.804;2023-03-04T09:05:12;99309.03;;;0.68;100.00
70027;BME280;57506;50.092;15.804;2023-03-04T09:07:37;99284.16;;;0.60;100.00
70027;BME280;57506;50.092;15.804;2023-03-04T09:10:04;99306.84;;;0.74;100.00
70027;BME280;57506;50.092;15.804;2023-03-04T09:12:29;99302.00;;;0.79;100.00
70027;BME280;57506;50.092;15.804;2023-03-04T09:14:55;99297.34;;;0.71;100.00
70027;BME280;57506;50.092;15.804;2023-03-04T09:17:20;99315.66;;;0.74;100.00
70027;BME280;57506;50.092;15.804;2023-03-04T09:19:46;99294.22;;;0.66;100.00
70027;BME280;57506;50.092;15.804;2023-03-04T09:22:11;99296.75;;;0.67;100.00
70027;BME280;57506;50.092;15.804;2023-03-04T09:24:37;99310.53;;;0.82;100.00
70027;BME280;57506;50.092;15.804;2023-03-04T09:27:02;99320.63;;;0.88;100.00
70027;BME280;57506;50.092;15.804;2023-03-04T09:29:28;99304.66;;;0.79;100.00
70027;BME280;57506;50.092;15.804;2023-03-04T09:31:53;99292.75;;;0.73;100.00
70027;BME280;57506;50.092;15.804;2023-03-04T09:34:19;99307.81;;;0.93;100.00
70027;BME280;57506;50.092;15.804;2023-03-04T09:36:44;99300.28;;;0.98;100.00
70027;BME280;57506;50.092;15.804;2023-03-04T09:39:10;99312.59;;;0.99;100.00
70027;BME280;57506;50.092;15.804;2023-03-04T09:41:47;99308.47;;;1.07;100.00
70027;BME280;57506;50.092;15.804;2023-03-04T09:46:49;99295.91;;;1.09;100.00
70027;BME280;57506;50.092;15.804;2023-03-04T09:49:15;99282.50;;;1.40;100.00
70027;BME280;57506;50.092;15.804;2023-03-04T09:54:59;99277.13;;;1.61;100.00
70027;BME280;57506;50.092;15.804;2023-03-04T10:05:19;99254.28;;;2.08;100.00
70027;BME280;57506;50.092;15.804;2023-03-04T10:07:51;99256.38;;;2.34;100.00
70027;BME280;57506;50.092;15.804;2023-03-04T10:10:32;99238.31;;;2.28;100.00
70027;BME280;57506;50.092;15.804;2023-03-04T10:13:00;99243.78;;;2.36;100.00
70027;BME280;57506;50.092;15.804;2023-03-04T10:15:32;99239.31;;;2.27;100.00
70027;BME280;57506;50.092;15.804;2023-03-04T10:20:56;99233.84;;;2.28;100.00
70027;BME280;57506;50.092;15.804;2023-03-04T10:23:27;99223.09;;;2.39;100.00
70027;BME280;57506;50.092;15.804;2023-03-04T10:25:53;99226.56;;;2.50;100.00
70027;BME280;57506;50.092;15.804;2023-03-04T10:28:24;99231.88;;;2.59;100.00
70027;BME280;57506;50.092;15.804;2023-03-04T10:33:28;99220.97;;;2.14;100.00
70027;BME280;57506;50.092;15.804;2023-03-04T10:38:48;99218.03;;;2.36;100.00
70027;BME280;57506;50.092;15.804;2023-03-04T10:41:20;99231.44;;;2.44;100.00
70027;BME280;57506;50.092;15.804;2023-03-04T10:46:44;99224.75;;;2.40;100.00
70027;BME280;57506;50.092;15.804;2023-03-04T10:49:11;99223.91;;;2.50;100.00
70027;BME280;57506;50.092;15.804;2023-03-04T10:51:47;99229.94;;;2.32;100.00
70027;BME280;57506;50.092;15.804;2023-03-04T10:57:05;99212.03;;;2.34;100.00
70027;BME280;57506;50.092;15.804;2023-03-04T11:02:33;99218.31;;;2.33;100.00
70027;BME280;57506;50.092;15.804;2023-03-04T11:12:59;99190.97;;;2.70;100.00
70027;BME280;57506;50.092;15.804;2023-03-04T11:15:27;99189.25;;;2.78;100.00
70027;BME280;57506;50.092;15.804;2023-03-04T11:17:57;99189.22;;;2.88;100.00
70027;BME280;57506;50.092;15.804;2023-03-04T11:20:33;99183.22;;;2.86;100.00
70027;BME280;57506;50.092;15.804;2023-03-04T11:23:05;99197.09;;;2.80;100.00
70027;BME280;57506;50.092;15.804;2023-03-04T11:25:39;99191.47;;;2.83;100.00
70027;BME280;57506;50.092;15.804;2023-03-04T11:30:58;99179.81;;;2.94;99.64
70027;BME280;57506;50.092;15.804;2023-03-04T11:33:47;99176.53;;;3.09;100.00
70027;BME280;57506;50.092;15.804;2023-03-04T11:36:22;99187.09;;;3.29;99.44
70027;BME280;57506;50.092;15.804;2023-03-04T11:38:53;99172.59;;;3.13;99.65
70027;BME280;57506;50.092;15.804;2023-03-04T11:43:50;99170.03;;;3.22;98.48
70027;BME280;57506;50.092;15.804;2023-03-04T11:46:47;99179.56;;;3.24;99.84
70027;BME280;57506;50.092;15.804;2023-03-04T12:06:13;99165.94;;;3.27;98.47
70027;BME280;57506;50.092;15.804;2023-03-04T12:16:47;99148.81;;;3.30;98.76
70027;BME280;57506;50.092;15.804;2023-03-04T12:22:12;99149.38;;;3.33;99.04
70027;BME280;57506;50.092;15.804;2023-03-04T12:39:31;99141.38;;;3.33;100.00
70027;BME280;57506;50.092;15.804;2023-03-04T12:45:08;99136.66;;;3.45;99.28
70027;BME280;57506;50.092;15.804;2023-03-04T12:50:35;99130.50;;;3.44;99.63
70027;BME280;57506;50.092;15.804;2023-03-04T12:55:55;99128.97;;;3.42;99.27
70027;BME280;57506;50.092;15.804;2023-03-04T12:58:27;99131.81;;;3.40;99.94
70027;BME280;57506;50.092;15.804;2023-03-04T13:01:11;99132.03;;;3.47;99.99
70027;BME280;57506;50.092;15.804;2023-03-04T13:04:01;99120.25;;;3.49;100.00
70027;BME280;57506;50.092;15.804;2023-03-04T13:06:45;99121.63;;;3.54;99.67
70027;BME280;57506;50.092;15.804;2023-03-04T13:11:49;99120.09;;;3.51;100.00
70027;BME280;57506;50.092;15.804;2023-03-04T13:16:52;99120.69;;;3.45;100.00
70027;BME280;57506;50.092;15.804;2023-03-04T13:20:04;99130.91;;;3.49;99.95
70027;BME280;57506;50.092;15.804;2023-03-04T13:22:57;99130.06;;;3.49;100.00
70027;BME280;57506;50.092;15.804;2023-03-04T13:36:01;99114.97;;;3.58;100.00
70027;BME280;57506;50.092;15.804;2023-03-04T13:43:54;99101.91;;;3.64;100.00
70027;BME280;57506;50.092;15.804;2023-03-04T14:01:33;99098.53;;;3.62;100.00
70027;BME280;57506;50.092;15.804;2023-03-04T14:04:01;99091.84;;;3.58;100.00
70027;BME280;57506;50.092;15.804;2023-03-04T14:06:39;99087.34;;;3.59;100.00
70027;BME280;57506;50.092;15.804;2023-03-04T14:09:13;99080.81;;;3.53;100.00
70027;BME280;57506;50.092;15.804;2023-03-04T14:11:40;99085.38;;;3.61;100.00
70027;BME280;57506;50.092;15.804;2023-03-04T14:14:11;99080.19;;;3.59;100.00
70027;BME280;57506;50.092;15.804;2023-03-04T14:16:44;99080.19;;;3.59;100.00
70027;BME280;57506;50.092;15.804;2023-03-04T14:19:42;99077.53;;;3.59;100.00
70027;BME280;57506;50.092;15.804;2023-03-04T14:22:16;99075.84;;;3.58;100.00
70027;BME280;57506;50.092;15.804;2023-03-04T14:27:38;99067.78;;;3.50;100.00
70027;BME280;57506;50.092;15.804;2023-03-04T14:30:07;99074.81;;;3.51;100.00
70027;BME280;57506;50.092;15.804;2023-03-04T14:32:33;99078.47;;;3.50;100.00
70027;BME280;57506;50.092;15.804;2023-03-04T14:35:05;99070.75;;;3.47;100.00
70027;BME280;57506;50.092;15.804;2023-03-04T14:37:51;99065.28;;;3.48;100.00
70027;BME280;57506;50.092;15.804;2023-03-04T14:40:22;99072.69;;;3.55;100.00
70027;BME280;57506;50.092;15.804;2023-03-04T14:42:54;99053.19;;;3.54;100.00
70027;BME280;57506;50.092;15.804;2023-03-04T14:45:21;99064.69;;;3.55;100.00
70027;BME280;57506;50.092;15.804;2023-03-04T14:47:48;99071.53;;;3.57;100.00
70027;BME280;57506;50.092;15.804;2023-03-04T14:50:18;99070.22;;;3.61;100.00
70027;BME280;57506;50.092;15.804;2023-03-04T14:52:46;99065.53;;;3.55;100.00
70027;BME280;57506;50.092;15.804;2023-03-04T14:57:39;99058.13;;;3.49;100.00
70027;BME280;57506;50.092;15.804;2023-03-04T15:02:50;99060.41;;;3.44;100.00
70027;BME280;57506;50.092;15.804;2023-03-04T15:05:25;99063.22;;;3.42;100.00
70027;BME280;57506;50.092;15.804;2023-03-04T15:07:55;99055.47;;;3.49;100.00
70027;BME280;57506;50.092;15.804;2023-03-04T15:10:30;99061.09;;;3.46;100.00
70027;BME280;57506;50.092;15.804;2023-03-04T15:12:59;99060.41;;;3.44;100.00
70027;BME280;57506;50.092;15.804;2023-03-04T15:17:59;99055.56;;;3.57;100.00